createdAt,value
2023-01-19T00:00:30.326Z,14.73
2023-01-19T00:02:56.972Z,14.73
2023-01-19T00:05:23.519Z,14.73
2023-01-19T00:07:50.044Z,14.75
2023-01-19T00:10:17.032Z,14.70
2023-01-19T00:12:43.630Z,14.74
2023-01-19T00:15:10.767Z,14.76
2023-01-19T00:17:37.288Z,14.75
2023-01-19T00:20:04.062Z,14.72
2023-01-19T00:22:30.590Z,14.66
2023-01-19T00:24:57.470Z,14.67
2023-01-19T00:27:24.726Z,14.66
2023-01-19T00:29:51.259Z,14.68
2023-01-19T00:32:18.145Z,14.65
2023-01-19T00:34:49.590Z,14.65
2023-01-19T00:37:17.234Z,14.74
2023-01-19T00:39:43.962Z,14.71
2023-01-19T00:42:32.717Z,14.62
2023-01-19T00:44:59.246Z,14.72
2023-01-19T00:47:25.929Z,14.75
2023-01-19T00:49:52.606Z,14.75
2023-01-19T00:52:19.655Z,14.80
2023-01-19T00:54:46.217Z,14.79
2023-01-19T00:57:12.822Z,14.83
2023-01-19T00:59:39.526Z,14.88
2023-01-19T01:02:06.223Z,14.86
2023-01-19T01:04:33.018Z,14.86
2023-01-19T01:06:59.725Z,14.87
2023-01-19T01:09:26.374Z,14.82
2023-01-19T01:11:53.143Z,14.87
2023-01-19T01:14:19.747Z,14.88
2023-01-19T01:16:46.696Z,14.85
2023-01-19T01:19:13.298Z,14.87
2023-01-19T01:21:40.005Z,14.83
2023-01-19T01:24:07.715Z,14.74
2023-01-19T01:26:34.208Z,14.82
2023-01-19T01:29:01.130Z,14.85
2023-01-19T01:31:27.743Z,14.87
2023-01-19T01:33:54.283Z,14.89
2023-01-19T01:36:20.937Z,14.87
2023-01-19T01:38:47.569Z,14.85
2023-01-19T01:41:14.339Z,14.82
2023-01-19T01:43:46.480Z,14.81
2023-01-19T01:46:15.701Z,14.83
2023-01-19T01:48:47.990Z,14.81
2023-01-19T01:51:26.032Z,14.78
2023-01-19T01:54:01.149Z,14.81
2023-01-19T01:56:40.140Z,14.84
2023-01-19T01:59:11.916Z,14.86
2023-01-19T02:01:58.040Z,14.81
2023-01-19T02:04:25.328Z,14.81
2023-01-19T02:07:10.800Z,14.83
2023-01-19T02:09:56.154Z,14.78
2023-01-19T02:12:42.255Z,14.86
2023-01-19T02:15:17.433Z,14.88
2023-01-19T02:17:44.432Z,14.88
2023-01-19T02:20:11.637Z,14.87
2023-01-19T02:22:47.172Z,14.86
2023-01-19T02:25:14.153Z,14.82
2023-01-19T02:27:41.215Z,14.80
2023-01-19T02:30:09.959Z,14.81
2023-01-19T02:32:36.597Z,14.74
2023-01-19T02:35:03.336Z,14.79
2023-01-19T02:37:32.902Z,14.78
2023-01-19T02:40:02.683Z,14.79
2023-01-19T02:42:40.721Z,14.80
2023-01-19T02:45:09.536Z,14.82
2023-01-19T02:47:44.938Z,14.84
2023-01-19T02:50:39.155Z,14.76
2023-01-19T02:53:25.135Z,14.76
2023-01-19T02:56:19.178Z,14.80
2023-01-19T02:58:57.705Z,14.74
2023-01-19T03:01:57.508Z,14.73
2023-01-19T03:04:51.730Z,14.70
2023-01-19T03:07:44.299Z,14.68
2023-01-19T03:11:15.585Z,14.72
2023-01-19T03:13:51.926Z,14.73
2023-01-19T03:16:35.531Z,14.72
2023-01-19T03:19:11.207Z,14.72
2023-01-19T03:21:42.869Z,14.74
2023-01-19T03:24:12.083Z,14.69
2023-01-19T03:26:47.419Z,14.71
2023-01-19T03:29:15.780Z,14.72
2023-01-19T03:31:47.188Z,14.68
2023-01-19T03:34:17.031Z,14.60
2023-01-19T03:36:45.515Z,14.63
2023-01-19T03:39:15.970Z,14.65
2023-01-19T03:41:47.080Z,14.62
2023-01-19T03:44:13.974Z,14.56
2023-01-19T03:46:40.925Z,14.58
2023-01-19T03:49:08.444Z,14.60
2023-01-19T03:51:39.820Z,14.55
2023-01-19T03:54:07.768Z,14.54
2023-01-19T03:56:34.301Z,14.49
2023-01-19T03:59:00.840Z,14.49
2023-01-19T04:01:27.631Z,14.54
2023-01-19T04:03:54.673Z,14.55
2023-01-19T04:06:21.540Z,14.53
2023-01-19T04:08:49.853Z,14.41
2023-01-19T04:11:16.721Z,14.48
2023-01-19T04:13:43.676Z,14.52
2023-01-19T04:16:11.090Z,14.50
2023-01-19T04:18:37.772Z,14.49
2023-01-19T04:21:06.904Z,14.48
2023-01-19T04:23:34.147Z,14.39
2023-01-19T04:26:03.927Z,14.41
2023-01-19T04:28:31.285Z,14.55
2023-01-19T04:30:57.872Z,14.48
2023-01-19T04:33:24.790Z,14.44
2023-01-19T04:35:54.424Z,14.46
2023-01-19T04:38:21.306Z,14.46
2023-01-19T04:40:49.115Z,14.44
2023-01-19T04:43:15.897Z,14.48
2023-01-19T04:45:44.801Z,14.43
2023-01-19T04:48:12.199Z,14.36
2023-01-19T04:50:38.691Z,14.46
2023-01-19T04:53:05.272Z,14.38
2023-01-19T04:55:31.772Z,14.42
2023-01-19T04:57:58.326Z,14.47
2023-01-19T05:00:24.833Z,14.45
2023-01-19T05:02:51.485Z,14.46
2023-01-19T05:05:18.338Z,14.43
2023-01-19T05:07:45.553Z,14.45
2023-01-19T05:10:12.719Z,14.48
2023-01-19T05:12:39.287Z,14.51
2023-01-19T05:15:07.824Z,14.47
2023-01-19T05:17:34.544Z,14.47
2023-01-19T05:20:01.158Z,14.48
2023-01-19T05:22:27.685Z,14.52
2023-01-19T05:24:54.478Z,14.51
2023-01-19T05:27:21.067Z,14.57
2023-01-19T05:29:47.665Z,14.51
2023-01-19T05:32:14.360Z,14.49
2023-01-19T05:34:40.966Z,14.53
2023-01-19T05:37:07.501Z,14.51
2023-01-19T05:39:34.178Z,14.51
2023-01-19T05:42:00.700Z,14.53
2023-01-19T05:44:27.324Z,14.50
2023-01-19T05:46:53.918Z,14.50
2023-01-19T05:49:20.473Z,14.47
2023-01-19T05:51:47.209Z,14.55
2023-01-19T05:54:15.635Z,14.52
2023-01-19T05:56:42.867Z,14.53
2023-01-19T05:59:10.546Z,14.55
2023-01-19T06:01:39.926Z,14.46
2023-01-19T06:04:07.120Z,14.42
2023-01-19T06:06:33.805Z,14.53
2023-01-19T06:09:00.349Z,14.53
2023-01-19T06:11:26.894Z,14.57
2023-01-19T06:13:53.424Z,14.61
2023-01-19T06:16:19.954Z,14.58
2023-01-19T06:18:46.628Z,14.56
2023-01-19T06:21:14.369Z,14.59
2023-01-19T06:23:41.417Z,14.67
2023-01-19T06:26:08.356Z,14.63
2023-01-19T06:28:34.928Z,14.66
2023-01-19T06:31:01.981Z,14.71
2023-01-19T06:33:28.823Z,14.76
2023-01-19T06:35:55.946Z,14.78
2023-01-19T06:38:22.905Z,14.74
2023-01-19T06:41:02.735Z,14.75
2023-01-19T06:43:29.965Z,14.80
2023-01-19T06:45:56.552Z,14.81
2023-01-19T06:48:23.964Z,14.84
2023-01-19T06:50:50.495Z,14.85
2023-01-19T06:53:17.628Z,14.88
2023-01-19T06:55:44.290Z,14.87
2023-01-19T06:58:11.542Z,14.91
2023-01-19T07:00:38.220Z,14.94
2023-01-19T07:03:08.080Z,14.98
2023-01-19T07:05:36.015Z,14.99
2023-01-19T07:08:03.310Z,15.00
2023-01-19T07:11:24.989Z,15.05
2023-01-19T07:13:16.488Z,15.13
2023-01-19T07:15:43.577Z,15.17
2023-01-19T07:18:10.311Z,15.16
2023-01-19T07:20:37.713Z,15.26
2023-01-19T07:23:04.351Z,15.29
2023-01-19T07:25:30.972Z,15.30
2023-01-19T07:28:01.519Z,15.35
2023-01-19T07:30:28.646Z,15.31
2023-01-19T07:32:57.589Z,15.41
2023-01-19T07:35:25.036Z,15.51
2023-01-19T07:37:51.625Z,15.54
2023-01-19T07:40:18.240Z,15.54
2023-01-19T07:42:49.287Z,15.54
2023-01-19T07:45:20.889Z,15.66
2023-01-19T07:47:49.797Z,15.68
2023-01-19T07:50:18.013Z,15.78
2023-01-19T07:52:44.854Z,15.90
2023-01-19T07:55:11.441Z,15.85
2023-01-19T07:57:38.054Z,15.75
2023-01-19T08:00:05.079Z,15.75
2023-01-19T08:02:34.070Z,15.71
2023-01-19T08:05:00.644Z,15.86
2023-01-19T08:07:27.344Z,15.87
2023-01-19T08:09:53.877Z,15.84
2023-01-19T08:12:20.484Z,15.89
2023-01-19T08:14:47.067Z,15.99
2023-01-19T08:17:14.094Z,15.97
2023-01-19T08:19:42.220Z,16.03
2023-01-19T08:22:08.857Z,16.10
2023-01-19T08:24:35.380Z,16.20
2023-01-19T08:27:03.563Z,16.19
2023-01-19T08:29:31.935Z,16.27
2023-01-19T08:32:00.236Z,16.09
2023-01-19T08:34:27.237Z,16.12
2023-01-19T08:36:54.229Z,15.93
2023-01-19T08:39:20.836Z,15.87
2023-01-19T08:41:47.475Z,15.78
2023-01-19T08:44:14.165Z,15.71
2023-01-19T08:46:40.787Z,15.79
2023-01-19T08:49:07.934Z,15.67
2023-01-19T08:51:34.599Z,15.62
2023-01-19T08:54:01.211Z,15.66
2023-01-19T08:56:27.913Z,15.58
2023-01-19T09:01:41.565Z,15.58
2023-01-19T09:04:08.537Z,15.62
2023-01-19T09:06:35.202Z,15.57
2023-01-19T09:09:01.798Z,15.57
2023-01-19T09:11:28.356Z,15.55
2023-01-19T09:13:55.055Z,15.58
2023-01-19T09:16:21.707Z,15.57
2023-01-19T09:18:48.319Z,15.53
2023-01-19T09:21:15.257Z,15.52
2023-01-19T09:23:42.250Z,15.50
2023-01-19T09:26:09.928Z,15.57
2023-01-19T09:28:38.116Z,15.59
2023-01-19T09:31:07.440Z,15.59
2023-01-19T09:33:35.002Z,15.54
2023-01-19T09:36:02.203Z,15.51
2023-01-19T09:38:32.754Z,15.53
2023-01-19T09:41:00.276Z,15.49
2023-01-19T09:43:47.409Z,15.49
2023-01-19T09:46:22.307Z,15.47
2023-01-19T09:48:56.586Z,15.43
2023-01-19T09:51:36.279Z,15.51
2023-01-19T09:54:02.798Z,15.50
2023-01-19T09:56:31.018Z,15.52
2023-01-19T09:58:58.478Z,15.52
2023-01-19T10:01:31.214Z,15.51
2023-01-19T10:04:40.153Z,15.44
2023-01-19T10:07:20.340Z,15.46
2023-01-19T10:10:02.461Z,15.48
2023-01-19T10:12:39.126Z,15.42
2023-01-19T10:15:11.532Z,15.44
2023-01-19T10:18:13.401Z,15.41
2023-01-19T10:20:51.955Z,15.39
2023-01-19T10:23:41.773Z,15.41
2023-01-19T10:26:13.772Z,15.35
2023-01-19T10:28:40.977Z,15.47
2023-01-19T10:31:09.628Z,15.45
2023-01-19T10:33:38.493Z,15.43
2023-01-19T10:36:30.073Z,15.42
2023-01-19T10:38:58.016Z,15.45
2023-01-19T10:41:31.762Z,15.44
2023-01-19T10:44:04.278Z,15.43
2023-01-19T10:46:47.808Z,15.51
2023-01-19T10:49:26.614Z,15.54
2023-01-19T10:51:54.299Z,15.52
2023-01-19T10:54:22.187Z,15.52
2023-01-19T10:57:02.820Z,15.57
2023-01-19T10:59:35.411Z,15.62
2023-01-19T11:02:27.029Z,15.66
2023-01-19T11:05:02.496Z,15.73
2023-01-19T11:20:21.732Z,16.14
2023-01-19T11:22:49.101Z,15.96
2023-01-19T11:25:25.966Z,16.01
2023-01-19T11:27:52.834Z,16.02
2023-01-19T11:30:23.004Z,15.93
2023-01-19T11:32:49.664Z,16.04
2023-01-19T12:03:31.503Z,16.82
2023-01-19T12:06:06.910Z,16.65
2023-01-19T12:08:39.258Z,16.57
2023-01-19T12:11:08.946Z,16.49
2023-01-19T12:13:36.320Z,16.38
2023-01-19T12:16:02.827Z,16.35
2023-01-19T12:18:35.931Z,16.39
2023-01-19T12:21:04.197Z,16.40
2023-01-19T12:23:58.588Z,16.37
2023-01-19T12:26:27.982Z,16.36
2023-01-19T12:28:59.187Z,16.37
2023-01-19T12:31:25.924Z,16.51
2023-01-19T12:33:53.001Z,16.46
2023-01-19T12:36:35.541Z,16.54
2023-01-19T12:52:24.400Z,16.63
2023-01-19T12:54:54.851Z,16.63
2023-01-19T12:57:31.712Z,16.54
2023-01-19T13:00:05.070Z,16.58
2023-01-19T13:02:43.480Z,16.57
2023-01-19T13:05:14.765Z,16.59
2023-01-19T13:08:06.279Z,16.43
2023-01-19T13:11:02.097Z,16.45
2023-01-19T13:13:30.123Z,16.38
2023-01-19T13:16:19.823Z,16.36
2023-01-19T13:18:59.342Z,16.34
2023-01-19T13:21:28.902Z,16.35
2023-01-19T13:23:57.484Z,16.38
2023-01-19T13:26:27.853Z,16.39
2023-01-19T13:29:06.587Z,16.36
2023-01-19T13:31:38.460Z,16.33
2023-01-19T13:34:13.951Z,16.29
2023-01-19T13:36:45.540Z,16.27
2023-01-19T13:39:18.593Z,16.28
2023-01-19T13:41:46.657Z,16.18
2023-01-19T13:44:23.253Z,16.25
2023-01-19T13:46:51.769Z,16.18
2023-01-19T13:49:35.431Z,16.21
2023-01-19T14:06:48.946Z,16.29
2023-01-19T14:09:18.797Z,16.15
2023-01-19T14:12:03.778Z,16.07
2023-01-19T14:14:30.605Z,16.02
2023-01-19T14:16:57.150Z,15.98
2023-01-19T14:33:55.468Z,16.13
2023-01-19T14:36:26.651Z,16.00
2023-01-19T14:38:54.748Z,15.91
2023-01-19T14:41:30.804Z,15.81
2023-01-19T14:43:59.289Z,15.70
2023-01-19T14:46:26.285Z,15.63
2023-01-19T14:49:00.743Z,15.59
2023-01-19T14:51:28.293Z,15.59
2023-01-19T14:53:58.853Z,15.55
2023-01-19T14:56:31.433Z,15.50
2023-01-19T14:59:00.817Z,15.45
2023-01-19T15:01:31.869Z,15.48
2023-01-19T15:03:58.826Z,15.49
2023-01-19T15:06:26.621Z,15.45
2023-01-19T15:08:54.253Z,15.48
2023-01-19T15:11:27.902Z,15.40
2023-01-19T15:13:55.630Z,15.30
2023-01-19T15:16:23.885Z,15.27
2023-01-19T15:18:50.579Z,15.13
2023-01-19T15:21:26.638Z,15.11
2023-01-19T15:23:54.941Z,14.97
2023-01-19T15:26:24.096Z,14.85
2023-01-19T15:28:51.335Z,14.63
2023-01-19T15:31:20.841Z,14.57
2023-01-19T15:33:47.892Z,14.44
2023-01-19T15:36:18.114Z,14.37
2023-01-19T15:38:45.841Z,14.22
2023-01-19T15:41:17.170Z,14.19
2023-01-19T15:43:43.843Z,14.10
2023-01-19T15:46:15.597Z,14.05
2023-01-19T15:48:42.574Z,14.00
2023-01-19T15:51:14.268Z,14.00
2023-01-19T15:53:41.517Z,13.99
2023-01-19T15:56:34.133Z,14.01
2023-01-19T15:59:01.577Z,13.92
2023-01-19T16:01:32.761Z,13.89
2023-01-19T16:04:01.491Z,13.91
2023-01-19T16:06:28.973Z,13.89
2023-01-19T16:08:59.691Z,13.91
2023-01-19T16:11:27.543Z,13.99
2023-01-19T16:13:54.174Z,14.02
2023-01-19T16:16:23.555Z,14.05
2023-01-19T16:18:50.531Z,14.05
2023-01-19T16:21:17.616Z,14.02
2023-01-19T16:23:44.226Z,13.74
2023-01-19T16:26:34.991Z,13.36
2023-01-19T16:29:10.435Z,13.30
2023-01-19T16:31:41.722Z,12.98
2023-01-19T16:34:09.406Z,12.84
2023-01-19T16:36:38.175Z,12.66
2023-01-19T16:39:08.423Z,12.61
2023-01-19T16:41:35.835Z,12.36
2023-01-19T16:44:02.804Z,12.22
2023-01-19T16:46:37.581Z,12.07
2023-01-19T16:49:06.544Z,12.01
2023-01-19T16:51:33.672Z,11.83
2023-01-19T16:54:00.326Z,11.92
2023-01-19T16:56:26.921Z,11.93
2023-01-19T16:58:55.273Z,11.87
2023-01-19T17:01:23.235Z,11.83
2023-01-19T17:03:50.220Z,11.82
2023-01-19T17:06:20.236Z,11.89
2023-01-19T17:08:47.601Z,11.71
2023-01-19T17:11:19.635Z,11.82
2023-01-19T17:14:05.371Z,11.69
2023-01-19T17:16:33.960Z,11.72
2023-01-19T17:19:02.721Z,11.74
2023-01-19T17:21:29.706Z,11.71
2023-01-19T17:23:57.384Z,11.72
2023-01-19T17:26:25.739Z,11.79
2023-01-19T17:28:52.425Z,11.77
2023-01-19T17:31:21.884Z,11.71
2023-01-19T17:33:50.342Z,11.76
2023-01-19T17:36:22.817Z,11.61
2023-01-19T17:38:50.268Z,11.73
2023-01-19T17:41:18.218Z,11.69
2023-01-19T17:43:45.161Z,11.64
2023-01-19T17:46:12.191Z,11.76
2023-01-19T17:48:39.467Z,11.87
2023-01-19T17:51:08.549Z,12.02
2023-01-19T17:53:40.193Z,12.05
2023-01-19T17:56:10.275Z,12.09
2023-01-19T17:58:37.248Z,12.01
2023-01-19T18:01:25.121Z,12.08
2023-01-19T18:03:53.010Z,12.05
2023-01-19T18:06:20.714Z,12.07
2023-01-19T18:08:49.387Z,12.06
2023-01-19T18:11:18.490Z,12.01
2023-01-19T18:13:46.576Z,11.89
2023-01-19T18:16:19.618Z,11.98
2023-01-19T18:18:46.338Z,11.96
2023-01-19T18:21:14.398Z,11.91
2023-01-19T18:23:45.753Z,11.85
2023-01-19T18:26:15.113Z,11.74
2023-01-19T18:28:41.906Z,11.62
2023-01-19T18:31:11.179Z,11.72
2023-01-19T18:33:38.925Z,11.66
2023-01-19T18:36:06.624Z,11.61
2023-01-19T18:38:34.121Z,11.66
2023-01-19T18:41:21.829Z,11.66
2023-01-19T18:43:48.663Z,11.64
2023-01-19T18:46:16.258Z,11.66
2023-01-19T18:48:43.115Z,11.65
2023-01-19T18:51:14.430Z,11.65
2023-01-19T18:53:41.443Z,11.63
2023-01-19T18:56:11.136Z,11.55
2023-01-19T18:58:38.557Z,11.67
2023-01-19T19:01:05.365Z,11.65
2023-01-19T19:03:32.043Z,11.54
2023-01-19T19:06:03.534Z,11.47
2023-01-19T19:08:30.310Z,11.49
2023-01-19T19:10:56.834Z,11.41
2023-01-19T19:13:23.687Z,11.30
2023-01-19T19:15:52.445Z,11.34
2023-01-19T19:18:19.171Z,11.44
2023-01-19T19:20:45.911Z,11.46
2023-01-19T19:23:12.537Z,11.52
2023-01-19T19:25:39.437Z,11.50
2023-01-19T19:28:06.485Z,11.61
2023-01-19T19:30:34.639Z,11.63
2023-01-19T19:33:01.640Z,11.59
2023-01-19T19:35:28.454Z,11.64
2023-01-19T19:37:57.912Z,11.73
2023-01-19T19:40:26.309Z,11.73
2023-01-19T19:42:53.121Z,11.79
2023-01-19T19:45:19.864Z,11.80
2023-01-19T19:47:46.504Z,11.74
2023-01-19T19:50:13.343Z,11.70
2023-01-19T19:52:43.248Z,11.63
2023-01-19T19:55:10.992Z,11.54
2023-01-19T19:57:37.775Z,11.56
2023-01-19T20:00:05.447Z,11.56
2023-01-19T20:02:32.387Z,11.62
2023-01-19T20:04:59.098Z,11.59
2023-01-19T20:07:25.737Z,11.63
2023-01-19T20:09:53.560Z,11.35
2023-01-19T20:12:20.159Z,11.49
2023-01-19T20:14:46.788Z,11.34
2023-01-19T20:17:13.312Z,11.21
2023-01-19T20:19:39.893Z,11.25
2023-01-19T20:22:07.228Z,11.30
2023-01-19T20:24:33.777Z,11.44
2023-01-19T20:27:00.423Z,11.50
2023-01-19T20:29:27.020Z,11.61
2023-01-19T20:31:55.361Z,11.63
2023-01-19T20:34:26.127Z,11.65
2023-01-19T20:36:53.970Z,11.67
2023-01-19T20:39:22.459Z,11.69
2023-01-19T20:41:51.156Z,11.72
2023-01-19T20:44:22.336Z,11.81
2023-01-19T20:46:49.634Z,11.73
2023-01-19T20:49:16.185Z,11.42
2023-01-19T20:51:45.283Z,11.28
2023-01-19T20:54:17.045Z,11.06
2023-01-19T20:56:44.148Z,10.82
2023-01-19T20:59:12.228Z,10.73
2023-01-19T21:01:39.983Z,10.70
2023-01-19T21:04:07.509Z,10.71
2023-01-19T21:06:34.516Z,10.69
2023-01-19T21:09:01.240Z,10.79
2023-01-19T21:11:28.370Z,10.66
2023-01-19T21:13:57.952Z,10.66
2023-01-19T21:16:31.573Z,10.59
2023-01-19T21:18:58.656Z,10.67
2023-01-19T21:21:30.710Z,10.60
2023-01-19T21:24:01.823Z,10.64
2023-01-19T21:26:31.622Z,10.71
2023-01-19T21:28:59.479Z,10.80
2023-01-19T21:31:27.724Z,10.59
2023-01-19T21:33:54.443Z,10.72
2023-01-19T21:36:22.521Z,10.71
2023-01-19T21:38:51.723Z,10.63
2023-01-19T21:41:18.764Z,10.48
2023-01-19T21:43:46.297Z,10.42
2023-01-19T21:46:17.629Z,10.34
2023-01-19T21:48:45.970Z,10.31
2023-01-19T21:51:13.619Z,10.44
2023-01-19T21:53:40.678Z,10.53
2023-01-19T21:56:11.284Z,10.61
2023-01-19T21:58:38.278Z,10.63
2023-01-19T22:01:09.780Z,10.63
2023-01-19T22:03:36.524Z,10.71
2023-01-19T22:06:05.656Z,10.71
2023-01-19T22:08:32.458Z,10.72
2023-01-19T22:11:05.282Z,10.76
2023-01-19T22:13:33.323Z,10.77
2023-01-19T22:16:04.677Z,10.81
2023-01-19T22:18:31.305Z,10.84
2023-01-19T22:21:11.229Z,10.90
2023-01-19T22:23:38.729Z,10.96
2023-01-19T22:26:06.013Z,10.91
2023-01-19T22:28:33.372Z,10.88
2023-01-19T22:31:04.217Z,10.88
2023-01-19T22:33:30.819Z,10.82
2023-01-19T22:36:19.456Z,10.81
2023-01-19T22:39:00.505Z,10.69
2023-01-19T22:41:29.663Z,10.65
2023-01-19T22:43:58.616Z,10.72
2023-01-19T22:46:27.824Z,10.73
2023-01-19T22:48:55.932Z,10.74
2023-01-19T22:51:23.910Z,10.65
2023-01-19T22:53:56.796Z,10.15
2023-01-19T22:56:25.490Z,9.74
2023-01-19T22:58:53.200Z,9.53
2023-01-19T23:01:28.068Z,9.48
2023-01-19T23:03:55.036Z,9.45
2023-01-19T23:06:23.953Z,9.45
2023-01-19T23:08:51.461Z,9.48
2023-01-19T23:11:20.476Z,9.55
2023-01-19T23:13:47.536Z,9.67
2023-01-19T23:16:14.721Z,9.50
2023-01-19T23:18:42.247Z,9.48
2023-01-19T23:21:17.104Z,9.43
2023-01-19T23:23:44.862Z,9.40
2023-01-19T23:26:12.829Z,9.31
2023-01-19T23:28:40.318Z,9.19
2023-01-19T23:31:16.766Z,9.19
2023-01-19T23:33:44.481Z,9.35
2023-01-19T23:36:12.393Z,9.49
2023-01-19T23:38:39.185Z,9.57
2023-01-19T23:41:05.904Z,9.61
2023-01-19T23:43:32.720Z,9.60
2023-01-19T23:46:04.301Z,9.65
2023-01-19T23:48:31.309Z,9.73
2023-01-19T23:50:57.853Z,9.83
2023-01-19T23:53:24.641Z,9.90
2023-01-19T23:55:51.327Z,9.87
2023-01-19T23:58:17.879Z,9.92
